sensor_id;sensor_type;location;lat;lon;timestamp;P1;durP1;ratioP1;P2;durP2;ratioP2
41101;SDS011;26845;50.190;19.178;2022-11-14T00:00:47;55.08;;;28.12;;
41101;SDS011;26845;50.190;19.178;2022-11-14T00:03:14;55.23;;;29.37;;
41101;SDS011;26845;50.190;19.178;2022-11-14T00:05:42;60.70;;;29.70;;
41101;SDS011;26845;50.190;19.178;2022-11-14T00:08:18;60.05;;;29.98;;
41101;SDS011;26845;50.190;19.178;2022-11-14T00:10:48;66.10;;;31.82;;
41101;SDS011;26845;50.190;19.178;2022-11-14T00:13:16;60.65;;;30.43;;
41101;SDS011;26845;50.190;19.178;2022-11-14T00:15:47;58.52;;;29.02;;
41101;SDS011;26845;50.190;19.178;2022-11-14T00:18:21;51.68;;;26.52;;
41101;SDS011;26845;50.190;19.178;2022-11-14T00:20:49;56.30;;;29.80;;
41101;SDS011;26845;50.190;19.178;2022-11-14T00:23:18;52.08;;;27.60;;
41101;SDS011;26845;50.190;19.178;2022-11-14T00:25:46;49.40;;;26.57;;
41101;SDS011;26845;50.190;19.178;2022-11-14T00:28:13;52.60;;;28.75;;
41101;SDS011;26845;50.190;19.178;2022-11-14T00:30:40;56.28;;;29.92;;
41101;SDS011;26845;50.190;19.178;2022-11-14T00:33:07;57.25;;;28.83;;
41101;SDS011;26845;50.190;19.178;2022-11-14T00:35:33;55.12;;;29.35;;
41101;SDS011;26845;50.190;19.178;2022-11-14T00:38:00;54.20;;;28.55;;
41101;SDS011;26845;50.190;19.178;2022-11-14T00:40:27;56.00;;;29.57;;
41101;SDS011;26845;50.190;19.178;2022-11-14T00:42:53;61.20;;;29.40;;
41101;SDS011;26845;50.190;19.178;2022-11-14T00:45:20;61.42;;;30.72;;
41101;SDS011;26845;50.190;19.178;2022-11-14T00:47:47;59.85;;;30.97;;
41101;SDS011;26845;50.190;19.178;2022-11-14T00:50:14;54.80;;;28.50;;
41101;SDS011;26845;50.190;19.178;2022-11-14T00:52:42;51.70;;;28.92;;
41101;SDS011;26845;50.190;19.178;2022-11-14T00:55:09;52.05;;;28.42;;
41101;SDS011;26845;50.190;19.178;2022-11-14T00:57:37;56.08;;;28.47;;
41101;SDS011;26845;50.190;19.178;2022-11-14T01:00:04;53.48;;;29.85;;
41101;SDS011;26845;50.190;19.178;2022-11-14T01:02:32;54.95;;;29.07;;
41101;SDS011;26845;50.190;19.178;2022-11-14T01:04:59;52.60;;;28.17;;
41101;SDS011;26845;50.190;19.178;2022-11-14T01:07:27;56.15;;;29.32;;
41101;SDS011;26845;50.190;19.178;2022-11-14T01:09:54;55.25;;;29.48;;
41101;SDS011;26845;50.190;19.178;2022-11-14T01:12:21;54.75;;;29.12;;
41101;SDS011;26845;50.190;19.178;2022-11-14T01:14:47;58.42;;;31.17;;
41101;SDS011;26845;50.190;19.178;2022-11-14T01:17:14;53.30;;;28.92;;
41101;SDS011;26845;50.190;19.178;2022-11-14T01:19:41;54.65;;;29.30;;
41101;SDS011;26845;50.190;19.178;2022-11-14T01:22:07;53.17;;;29.70;;
41101;SDS011;26845;50.190;19.178;2022-11-14T01:24:34;47.05;;;26.52;;
41101;SDS011;26845;50.190;19.178;2022-11-14T01:27:01;54.88;;;29.10;;
41101;SDS011;26845;50.190;19.178;2022-11-14T01:29:28;53.13;;;28.70;;
41101;SDS011;26845;50.190;19.178;2022-11-14T01:31:57;57.95;;;28.98;;
41101;SDS011;26845;50.190;19.178;2022-11-14T01:34:23;49.15;;;26.55;;
41101;SDS011;26845;50.190;19.178;2022-11-14T01:36:51;53.25;;;28.55;;
41101;SDS011;26845;50.190;19.178;2022-11-14T01:39:20;48.23;;;25.45;;
41101;SDS011;26845;50.190;19.178;2022-11-14T01:41:46;51.98;;;27.62;;
41101;SDS011;26845;50.190;19.178;2022-11-14T01:46:45;47.08;;;26.60;;
41101;SDS011;26845;50.190;19.178;2022-11-14T01:51:55;47.48;;;25.82;;
41101;SDS011;26845;50.190;19.178;2022-11-14T01:54:31;51.65;;;27.55;;
41101;SDS011;26845;50.190;19.178;2022-11-14T01:57:02;51.77;;;27.07;;
41101;SDS011;26845;50.190;19.178;2022-11-14T01:59:35;50.03;;;27.10;;
41101;SDS011;26845;50.190;19.178;2022-11-14T02:02:07;50.23;;;26.93;;
41101;SDS011;26845;50.190;19.178;2022-11-14T02:04:39;51.25;;;25.88;;
41101;SDS011;26845;50.190;19.178;2022-11-14T02:07:09;49.40;;;27.30;;
41101;SDS011;26845;50.190;19.178;2022-11-14T02:09:38;54.30;;;28.23;;
41101;SDS011;26845;50.190;19.178;2022-11-14T02:12:11;52.20;;;27.42;;
41101;SDS011;26845;50.190;19.178;2022-11-14T02:14:40;50.67;;;27.02;;
41101;SDS011;26845;50.190;19.178;2022-11-14T02:17:10;47.35;;;26.37;;
41101;SDS011;26845;50.190;19.178;2022-11-14T02:19:47;49.58;;;26.33;;
41101;SDS011;26845;50.190;19.178;2022-11-14T02:22:19;47.53;;;25.85;;
41101;SDS011;26845;50.190;19.178;2022-11-14T02:24:47;45.12;;;25.75;;
41101;SDS011;26845;50.190;19.178;2022-11-14T02:27:13;47.33;;;27.25;;
41101;SDS011;26845;50.190;19.178;2022-11-14T02:29:44;43.75;;;25.40;;
41101;SDS011;26845;50.190;19.178;2022-11-14T02:32:11;47.62;;;25.68;;
41101;SDS011;26845;50.190;19.178;2022-11-14T02:34:37;41.95;;;23.75;;
41101;SDS011;26845;50.190;19.178;2022-11-14T02:37:04;38.95;;;22.48;;
41101;SDS011;26845;50.190;19.178;2022-11-14T02:39:32;38.25;;;22.13;;
41101;SDS011;26845;50.190;19.178;2022-11-14T02:41:59;41.28;;;23.50;;
41101;SDS011;26845;50.190;19.178;2022-11-14T02:44:26;37.55;;;21.05;;
41101;SDS011;26845;50.190;19.178;2022-11-14T02:46:53;41.48;;;24.10;;
41101;SDS011;26845;50.190;19.178;2022-11-14T02:49:19;41.42;;;22.93;;
41101;SDS011;26845;50.190;19.178;2022-11-14T02:51:46;34.53;;;21.30;;
41101;SDS011;26845;50.190;19.178;2022-11-14T02:54:15;37.63;;;20.62;;
41101;SDS011;26845;50.190;19.178;2022-11-14T02:56:41;36.00;;;21.97;;
41101;SDS011;26845;50.190;19.178;2022-11-14T02:59:08;33.73;;;19.57;;
41101;SDS011;26845;50.190;19.178;2022-11-14T03:01:35;35.58;;;19.90;;
41101;SDS011;26845;50.190;19.178;2022-11-14T03:04:01;35.55;;;21.17;;
41101;SDS011;26845;50.190;19.178;2022-11-14T03:06:28;27.93;;;16.23;;
41101;SDS011;26845;50.190;19.178;2022-11-14T03:08:55;34.27;;;20.25;;
41101;SDS011;26845;50.190;19.178;2022-11-14T03:11:22;40.25;;;23.00;;
41101;SDS011;26845;50.190;19.178;2022-11-14T03:13:48;40.17;;;22.52;;
41101;SDS011;26845;50.190;19.178;2022-11-14T03:16:15;35.30;;;21.70;;
41101;SDS011;26845;50.190;19.178;2022-11-14T03:18:42;39.25;;;22.02;;
41101;SDS011;26845;50.190;19.178;2022-11-14T03:21:12;33.88;;;20.12;;
41101;SDS011;26845;50.190;19.178;2022-11-14T03:23:42;38.63;;;22.82;;
41101;SDS011;26845;50.190;19.178;2022-11-14T03:26:09;39.85;;;21.55;;
41101;SDS011;26845;50.190;19.178;2022-11-14T03:28:39;35.60;;;19.62;;
41101;SDS011;26845;50.190;19.178;2022-11-14T03:31:08;36.23;;;21.40;;
41101;SDS011;26845;50.190;19.178;2022-11-14T03:33:38;36.55;;;20.77;;
41101;SDS011;26845;50.190;19.178;2022-11-14T03:36:05;37.20;;;21.90;;
41101;SDS011;26845;50.190;19.178;2022-11-14T03:38:35;36.17;;;21.05;;
41101;SDS011;26845;50.190;19.178;2022-11-14T03:41:02;31.25;;;17.98;;
41101;SDS011;26845;50.190;19.178;2022-11-14T03:43:29;32.28;;;18.73;;
41101;SDS011;26845;50.190;19.178;2022-11-14T03:45:59;30.32;;;17.90;;
41101;SDS011;26845;50.190;19.178;2022-11-14T03:48:28;30.37;;;17.57;;
41101;SDS011;26845;50.190;19.178;2022-11-14T03:50:55;33.70;;;19.15;;
41101;SDS011;26845;50.190;19.178;2022-11-14T03:53:23;30.12;;;16.60;;
41101;SDS011;26845;50.190;19.178;2022-11-14T03:55:50;27.17;;;16.65;;
41101;SDS011;26845;50.190;19.178;2022-11-14T03:58:17;24.52;;;15.10;;
41101;SDS011;26845;50.190;19.178;2022-11-14T04:00:44;28.87;;;16.42;;
41101;SDS011;26845;50.190;19.178;2022-11-14T04:03:11;25.62;;;15.95;;
41101;SDS011;26845;50.190;19.178;2022-11-14T04:05:38;27.20;;;16.40;;
41101;SDS011;26845;50.190;19.178;2022-11-14T04:08:05;31.73;;;17.10;;
41101;SDS011;26845;50.190;19.178;2022-11-14T04:10:32;26.10;;;15.48;;
41101;SDS011;26845;50.190;19.178;2022-11-14T04:12:59;27.50;;;16.73;;
41101;SDS011;26845;50.190;19.178;2022-11-14T04:15:26;28.07;;;16.67;;
41101;SDS011;26845;50.190;19.178;2022-11-14T04:17:52;27.22;;;16.73;;
41101;SDS011;26845;50.190;19.178;2022-11-14T04:20:19;31.25;;;17.48;;
41101;SDS011;26845;50.190;19.178;2022-11-14T04:22:49;30.23;;;18.15;;
41101;SDS011;26845;50.190;19.178;2022-11-14T04:25:15;26.00;;;15.10;;
41101;SDS011;26845;50.190;19.178;2022-11-14T04:27:42;28.77;;;16.30;;
41101;SDS011;26845;50.190;19.178;2022-11-14T04:30:09;30.10;;;16.52;;
41101;SDS011;26845;50.190;19.178;2022-11-14T04:32:36;28.57;;;16.80;;
41101;SDS011;26845;50.190;19.178;2022-11-14T04:35:03;27.05;;;16.02;;
41101;SDS011;26845;50.190;19.178;2022-11-14T04:37:30;31.62;;;17.62;;
41101;SDS011;26845;50.190;19.178;2022-11-14T04:39:58;30.15;;;17.37;;
41101;SDS011;26845;50.190;19.178;2022-11-14T04:42:27;27.58;;;16.30;;
41101;SDS011;26845;50.190;19.178;2022-11-14T04:44:54;27.35;;;15.68;;
41101;SDS011;26845;50.190;19.178;2022-11-14T04:47:21;25.23;;;14.68;;
41101;SDS011;26845;50.190;19.178;2022-11-14T04:49:47;22.87;;;13.70;;
41101;SDS011;26845;50.190;19.178;2022-11-14T04:52:14;24.05;;;13.32;;
41101;SDS011;26845;50.190;19.178;2022-11-14T04:54:40;24.27;;;14.35;;
41101;SDS011;26845;50.190;19.178;2022-11-14T04:57:07;25.75;;;15.95;;
41101;SDS011;26845;50.190;19.178;2022-11-14T04:59:34;23.32;;;14.35;;
41101;SDS011;26845;50.190;19.178;2022-11-14T05:02:00;28.23;;;15.48;;
41101;SDS011;26845;50.190;19.178;2022-11-14T05:04:27;28.75;;;17.25;;
41101;SDS011;26845;50.190;19.178;2022-11-14T05:06:55;28.15;;;16.75;;
41101;SDS011;26845;50.190;19.178;2022-11-14T05:09:22;25.02;;;14.68;;
41101;SDS011;26845;50.190;19.178;2022-11-14T05:11:48;25.72;;;15.53;;
41101;SDS011;26845;50.190;19.178;2022-11-14T05:14:15;29.50;;;16.70;;
41101;SDS011;26845;50.190;19.178;2022-11-14T05:16:42;27.37;;;15.78;;
41101;SDS011;26845;50.190;19.178;2022-11-14T05:19:08;24.05;;;14.68;;
41101;SDS011;26845;50.190;19.178;2022-11-14T05:21:35;26.57;;;15.93;;
41101;SDS011;26845;50.190;19.178;2022-11-14T05:24:01;23.20;;;13.78;;
41101;SDS011;26845;50.190;19.178;2022-11-14T05:26:28;25.55;;;16.05;;
41101;SDS011;26845;50.190;19.178;2022-11-14T05:28:55;31.17;;;17.27;;
41101;SDS011;26845;50.190;19.178;2022-11-14T05:31:22;26.48;;;15.58;;
41101;SDS011;26845;50.190;19.178;2022-11-14T05:33:48;28.32;;;17.35;;
41101;SDS011;26845;50.190;19.178;2022-11-14T05:36:17;30.40;;;18.45;;
41101;SDS011;26845;50.190;19.178;2022-11-14T05:38:44;26.77;;;16.17;;
41101;SDS011;26845;50.190;19.178;2022-11-14T05:41:11;28.32;;;16.20;;
41101;SDS011;26845;50.190;19.178;2022-11-14T05:43:41;26.82;;;15.80;;
41101;SDS011;26845;50.190;19.178;2022-11-14T05:46:09;29.92;;;16.62;;
41101;SDS011;26845;50.190;19.178;2022-11-14T05:48:38;24.15;;;14.60;;
41101;SDS011;26845;50.190;19.178;2022-11-14T05:51:07;24.23;;;14.58;;
41101;SDS011;26845;50.190;19.178;2022-11-14T05:53:37;24.23;;;14.47;;
41101;SDS011;26845;50.190;19.178;2022-11-14T05:56:06;24.52;;;15.38;;
41101;SDS011;26845;50.190;19.178;2022-11-14T05:58:36;25.62;;;15.03;;
41101;SDS011;26845;50.190;19.178;2022-11-14T06:01:05;20.45;;;12.50;;
41101;SDS011;26845;50.190;19.178;2022-11-14T06:03:39;23.83;;;14.73;;
41101;SDS011;26845;50.190;19.178;2022-11-14T06:06:10;23.38;;;13.15;;
41101;SDS011;26845;50.190;19.178;2022-11-14T06:08:39;22.90;;;13.62;;
41101;SDS011;26845;50.190;19.178;2022-11-14T06:11:07;24.40;;;14.78;;
41101;SDS011;26845;50.190;19.178;2022-11-14T06:13:37;23.83;;;13.70;;
41101;SDS011;26845;50.190;19.178;2022-11-14T06:16:05;25.45;;;14.45;;
41101;SDS011;26845;50.190;19.178;2022-11-14T06:18:36;22.05;;;13.95;;
41101;SDS011;26845;50.190;19.178;2022-11-14T06:21:10;26.10;;;14.55;;
41101;SDS011;26845;50.190;19.178;2022-11-14T06:23:40;18.52;;;11.68;;
41101;SDS011;26845;50.190;19.178;2022-11-14T06:26:10;20.25;;;12.43;;
41101;SDS011;26845;50.190;19.178;2022-11-14T06:28:55;21.60;;;13.13;;
41101;SDS011;26845;50.190;19.178;2022-11-14T06:31:23;25.55;;;14.30;;
41101;SDS011;26845;50.190;19.178;2022-11-14T06:33:51;22.00;;;13.58;;
41101;SDS011;26845;50.190;19.178;2022-11-14T06:36:18;22.98;;;14.30;;
41101;SDS011;26845;50.190;19.178;2022-11-14T06:38:44;20.70;;;12.80;;
41101;SDS011;26845;50.190;19.178;2022-11-14T06:41:12;20.17;;;13.05;;
41101;SDS011;26845;50.190;19.178;2022-11-14T06:43:43;25.12;;;14.73;;
41101;SDS011;26845;50.190;19.178;2022-11-14T06:46:14;22.07;;;13.60;;
41101;SDS011;26845;50.190;19.178;2022-11-14T06:48:44;22.30;;;13.55;;
41101;SDS011;26845;50.190;19.178;2022-11-14T06:51:15;22.15;;;13.65;;
41101;SDS011;26845;50.190;19.178;2022-11-14T06:53:42;20.15;;;13.05;;
41101;SDS011;26845;50.190;19.178;2022-11-14T06:56:11;24.87;;;14.13;;
41101;SDS011;26845;50.190;19.178;2022-11-14T06:58:45;21.30;;;13.55;;
41101;SDS011;26845;50.190;19.178;2022-11-14T07:01:18;21.90;;;13.03;;
41101;SDS011;26845;50.190;19.178;2022-11-14T07:03:43;25.92;;;14.35;;
41101;SDS011;26845;50.190;19.178;2022-11-14T07:06:13;22.70;;;14.17;;
41101;SDS011;26845;50.190;19.178;2022-11-14T07:08:49;23.32;;;14.63;;
41101;SDS011;26845;50.190;19.178;2022-11-14T07:11:18;21.45;;;13.75;;
41101;SDS011;26845;50.190;19.178;2022-11-14T07:13:49;26.05;;;15.88;;
41101;SDS011;26845;50.190;19.178;2022-11-14T07:16:24;19.73;;;12.88;;
41101;SDS011;26845;50.190;19.178;2022-11-14T07:18:55;22.82;;;14.53;;
41101;SDS011;26845;50.190;19.178;2022-11-14T07:21:30;30.65;;;18.20;;
41101;SDS011;26845;50.190;19.178;2022-11-14T07:23:58;25.95;;;15.70;;
41101;SDS011;26845;50.190;19.178;2022-11-14T07:26:25;28.87;;;16.17;;
41101;SDS011;26845;50.190;19.178;2022-11-14T07:28:52;29.57;;;15.05;;
41101;SDS011;26845;50.190;19.178;2022-11-14T07:31:19;20.65;;;13.58;;
41101;SDS011;26845;50.190;19.178;2022-11-14T07:33:47;20.32;;;13.40;;
41101;SDS011;26845;50.190;19.178;2022-11-14T07:36:15;20.92;;;13.83;;
41101;SDS011;26845;50.190;19.178;2022-11-14T07:38:49;21.35;;;13.70;;
41101;SDS011;26845;50.190;19.178;2022-11-14T07:41:16;21.52;;;14.05;;
41101;SDS011;26845;50.190;19.178;2022-11-14T07:43:45;27.02;;;17.07;;
41101;SDS011;26845;50.190;19.178;2022-11-14T07:46:13;30.20;;;19.02;;
41101;SDS011;26845;50.190;19.178;2022-11-14T07:48:42;19.87;;;12.82;;
41101;SDS011;26845;50.190;19.178;2022-11-14T07:51:15;22.17;;;15.45;;
41101;SDS011;26845;50.190;19.178;2022-11-14T07:53:46;21.75;;;14.90;;
41101;SDS011;26845;50.190;19.178;2022-11-14T07:56:13;20.62;;;13.75;;
41101;SDS011;26845;50.190;19.178;2022-11-14T07:58:45;20.90;;;12.95;;
41101;SDS011;26845;50.190;19.178;2022-11-14T08:01:14;19.60;;;12.65;;
41101;SDS011;26845;50.190;19.178;2022-11-14T08:03:41;16.73;;;11.38;;
41101;SDS011;26845;50.190;19.178;2022-11-14T08:06:10;19.50;;;12.88;;
41101;SDS011;26845;50.190;19.178;2022-11-14T08:08:40;17.40;;;11.78;;
41101;SDS011;26845;50.190;19.178;2022-11-14T08:11:09;21.23;;;13.58;;
41101;SDS011;26845;50.190;19.178;2022-11-14T08:13:38;18.73;;;12.97;;
41101;SDS011;26845;50.190;19.178;2022-11-14T08:16:06;14.07;;;10.63;;
41101;SDS011;26845;50.190;19.178;2022-11-14T08:18:35;19.15;;;12.98;;
41101;SDS011;26845;50.190;19.178;2022-11-14T08:21:02;21.12;;;13.72;;
41101;SDS011;26845;50.190;19.178;2022-11-14T08:23:30;20.75;;;13.58;;
41101;SDS011;26845;50.190;19.178;2022-11-14T08:25:57;20.00;;;13.43;;
41101;SDS011;26845;50.190;19.178;2022-11-14T08:28:24;16.55;;;11.95;;
41101;SDS011;26845;50.190;19.178;2022-11-14T08:30:51;23.80;;;15.83;;
41101;SDS011;26845;50.190;19.178;2022-11-14T08:33:18;20.72;;;14.13;;
41101;SDS011;26845;50.190;19.178;2022-11-14T08:35:47;20.68;;;13.62;;
41101;SDS011;26845;50.190;19.178;2022-11-14T08:38:14;18.90;;;12.68;;
41101;SDS011;26845;50.190;19.178;2022-11-14T08:40:41;21.15;;;14.25;;
41101;SDS011;26845;50.190;19.178;2022-11-14T08:43:07;19.75;;;12.98;;
41101;SDS011;26845;50.190;19.178;2022-11-14T08:45:36;21.65;;;14.95;;
41101;SDS011;26845;50.190;19.178;2022-11-14T08:48:02;24.35;;;15.43;;
41101;SDS011;26845;50.190;19.178;2022-11-14T08:50:31;20.50;;;14.07;;
41101;SDS011;26845;50.190;19.178;2022-11-14T08:52:59;17.57;;;13.30;;
41101;SDS011;26845;50.190;19.178;2022-11-14T08:55:26;19.62;;;13.15;;
41101;SDS011;26845;50.190;19.178;2022-11-14T08:57:52;20.05;;;12.75;;
41101;SDS011;26845;50.190;19.178;2022-11-14T09:00:20;16.97;;;12.15;;
41101;SDS011;26845;50.190;19.178;2022-11-14T09:02:47;19.40;;;13.13;;
41101;SDS011;26845;50.190;19.178;2022-11-14T09:05:14;20.95;;;13.50;;
41101;SDS011;26845;50.190;19.178;2022-11-14T09:07:43;17.27;;;11.70;;
41101;SDS011;26845;50.190;19.178;2022-11-14T09:10:12;18.73;;;12.47;;
41101;SDS011;26845;50.190;19.178;2022-11-14T09:12:39;15.30;;;10.38;;
41101;SDS011;26845;50.190;19.178;2022-11-14T09:15:07;16.82;;;11.75;;
41101;SDS011;26845;50.190;19.178;2022-11-14T09:17:40;16.12;;;10.58;;
41101;SDS011;26845;50.190;19.178;2022-11-14T09:20:07;15.88;;;10.78;;
41101;SDS011;26845;50.190;19.178;2022-11-14T09:22:34;13.50;;;10.35;;
41101;SDS011;26845;50.190;19.178;2022-11-14T09:25:01;15.45;;;9.98;;
41101;SDS011;26845;50.190;19.178;2022-11-14T09:27:28;17.00;;;11.63;;
41101;SDS011;26845;50.190;19.178;2022-11-14T09:29:56;17.57;;;12.43;;
41101;SDS011;26845;50.190;19.178;2022-11-14T09:32:23;16.20;;;11.38;;
41101;SDS011;26845;50.190;19.178;2022-11-14T09:34:50;17.60;;;12.18;;
41101;SDS011;26845;50.190;19.178;2022-11-14T09:37:19;17.25;;;12.23;;
41101;SDS011;26845;50.190;19.178;2022-11-14T09:39:46;15.43;;;11.28;;
41101;SDS011;26845;50.190;19.178;2022-11-14T09:45:08;17.15;;;12.55;;
41101;SDS011;26845;50.190;19.178;2022-11-14T09:47:44;18.55;;;12.15;;
41101;SDS011;26845;50.190;19.178;2022-11-14T09:50:50;18.95;;;12.47;;
41101;SDS011;26845;50.190;19.178;2022-11-14T09:53:32;21.95;;;14.93;;
41101;SDS011;26845;50.190;19.178;2022-11-14T09:56:11;18.02;;;13.43;;
41101;SDS011;26845;50.190;19.178;2022-11-14T10:01:14;19.02;;;13.30;;
41101;SDS011;26845;50.190;19.178;2022-11-14T10:06:52;18.60;;;13.15;;
41101;SDS011;26845;50.190;19.178;2022-11-14T10:15:34;23.32;;;15.18;;
41101;SDS011;26845;50.190;19.178;2022-11-14T10:21:20;24.23;;;15.18;;
41101;SDS011;26845;50.190;19.178;2022-11-14T10:23:55;18.73;;;13.48;;
41101;SDS011;26845;50.190;19.178;2022-11-14T10:26:34;23.30;;;16.85;;
41101;SDS011;26845;50.190;19.178;2022-11-14T10:32:26;31.57;;;20.92;;
41101;SDS011;26845;50.190;19.178;2022-11-14T10:35:13;25.65;;;18.05;;
41101;SDS011;26845;50.190;19.178;2022-11-14T10:40:38;20.10;;;14.47;;
41101;SDS011;26845;50.190;19.178;2022-11-14T10:46:19;24.32;;;16.00;;
41101;SDS011;26845;50.190;19.178;2022-11-14T10:48:46;23.15;;;15.72;;
41101;SDS011;26845;50.190;19.178;2022-11-14T10:51:20;23.47;;;15.70;;
41101;SDS011;26845;50.190;19.178;2022-11-14T10:54:02;23.73;;;16.20;;
41101;SDS011;26845;50.190;19.178;2022-11-14T10:56:47;23.73;;;14.87;;
41101;SDS011;26845;50.190;19.178;2022-11-14T10:59:16;21.15;;;15.25;;
41101;SDS011;26845;50.190;19.178;2022-11-14T11:01:45;23.32;;;15.88;;
41101;SDS011;26845;50.190;19.178;2022-11-14T11:04:20;21.87;;;15.85;;
41101;SDS011;26845;50.190;19.178;2022-11-14T11:07:16;22.75;;;15.95;;
41101;SDS011;26845;50.190;19.178;2022-11-14T11:09:40;23.40;;;16.20;;
41101;SDS011;26845;50.190;19.178;2022-11-14T11:15:14;20.50;;;15.18;;
41101;SDS011;26845;50.190;19.178;2022-11-14T11:18:01;20.35;;;15.53;;
41101;SDS011;26845;50.190;19.178;2022-11-14T11:23:06;21.02;;;13.72;;
41101;SDS011;26845;50.190;19.178;2022-11-14T11:25:45;20.62;;;15.18;;
41101;SDS011;26845;50.190;19.178;2022-11-14T11:28:18;19.30;;;14.65;;
41101;SDS011;26845;50.190;19.178;2022-11-14T11:30:57;23.77;;;14.85;;
41101;SDS011;26845;50.190;19.178;2022-11-14T11:33:33;23.83;;;15.35;;
41101;SDS011;26845;50.190;19.178;2022-11-14T11:36:04;22.17;;;15.63;;
41101;SDS011;26845;50.190;19.178;2022-11-14T11:38:37;21.97;;;15.95;;
41101;SDS011;26845;50.190;19.178;2022-11-14T11:43:53;22.87;;;16.27;;
41101;SDS011;26845;50.190;19.178;2022-11-14T11:52:18;24.23;;;16.87;;
41101;SDS011;26845;50.190;19.178;2022-11-14T11:55:13;23.87;;;16.42;;
41101;SDS011;26845;50.190;19.178;2022-11-14T12:01:03;26.65;;;17.82;;
41101;SDS011;26845;50.190;19.178;2022-11-14T12:03:30;23.15;;;16.87;;
41101;SDS011;26845;50.190;19.178;2022-11-14T12:06:02;26.95;;;17.67;;
41101;SDS011;26845;50.190;19.178;2022-11-14T12:08:47;22.30;;;16.50;;
41101;SDS011;26845;50.190;19.178;2022-11-14T12:11:39;27.48;;;17.90;;
41101;SDS011;26845;50.190;19.178;2022-11-14T12:17:23;29.60;;;18.02;;
41101;SDS011;26845;50.190;19.178;2022-11-14T12:23:25;25.90;;;17.02;;
41101;SDS011;26845;50.190;19.178;2022-11-14T12:32:13;25.40;;;16.50;;
41101;SDS011;26845;50.190;19.178;2022-11-14T12:34:44;27.98;;;17.02;;
41101;SDS011;26845;50.190;19.178;2022-11-14T12:37:17;27.22;;;17.30;;
41101;SDS011;26845;50.190;19.178;2022-11-14T12:39:58;29.90;;;18.27;;
41101;SDS011;26845;50.190;19.178;2022-11-14T12:42:28;24.92;;;17.10;;
41101;SDS011;26845;50.190;19.178;2022-11-14T12:44:57;25.65;;;15.90;;
41101;SDS011;26845;50.190;19.178;2022-11-14T12:47:26;27.07;;;18.65;;
41101;SDS011;26845;50.190;19.178;2022-11-14T12:55:55;25.25;;;16.50;;
41101;SDS011;26845;50.190;19.178;2022-11-14T13:11:56;24.67;;;16.25;;
41101;SDS011;26845;50.190;19.178;2022-11-14T13:14:48;22.55;;;15.93;;
41101;SDS011;26845;50.190;19.178;2022-11-14T13:17:39;21.60;;;15.03;;
41101;SDS011;26845;50.190;19.178;2022-11-14T13:20:28;21.42;;;15.28;;
41101;SDS011;26845;50.190;19.178;2022-11-14T13:28:51;24.27;;;16.12;;
41101;SDS011;26845;50.190;19.178;2022-11-14T13:31:21;22.50;;;15.23;;
41101;SDS011;26845;50.190;19.178;2022-11-14T13:43:46;27.62;;;15.90;;
41101;SDS011;26845;50.190;19.178;2022-11-14T13:52:05;25.43;;;17.33;;
41101;SDS011;26845;50.190;19.178;2022-11-14T13:54:32;26.27;;;17.95;;
41101;SDS011;26845;50.190;19.178;2022-11-14T14:00:14;26.75;;;17.75;;
41101;SDS011;26845;50.190;19.178;2022-11-14T14:17:20;23.67;;;16.37;;
41101;SDS011;26845;50.190;19.178;2022-11-14T14:25:35;22.95;;;15.48;;
41101;SDS011;26845;50.190;19.178;2022-11-14T14:31:18;24.12;;;15.90;;
41101;SDS011;26845;50.190;19.178;2022-11-14T14:33:50;21.87;;;14.87;;
41101;SDS011;26845;50.190;19.178;2022-11-14T14:36:24;27.82;;;16.77;;
41101;SDS011;26845;50.190;19.178;2022-11-14T14:38:51;23.92;;;15.75;;
41101;SDS011;26845;50.190;19.178;2022-11-14T14:41:43;22.27;;;15.00;;
41101;SDS011;26845;50.190;19.178;2022-11-14T14:44:16;21.77;;;14.63;;
41101;SDS011;26845;50.190;19.178;2022-11-14T14:46:56;24.25;;;15.93;;
41101;SDS011;26845;50.190;19.178;2022-11-14T14:49:28;23.52;;;16.10;;
41101;SDS011;26845;50.190;19.178;2022-11-14T14:52:00;29.12;;;18.30;;
41101;SDS011;26845;50.190;19.178;2022-11-14T14:54:27;25.12;;;17.23;;
41101;SDS011;26845;50.190;19.178;2022-11-14T14:56:57;23.70;;;15.32;;
41101;SDS011;26845;50.190;19.178;2022-11-14T14:59:26;26.30;;;17.82;;
41101;SDS011;26845;50.190;19.178;2022-11-14T15:01:56;26.40;;;16.93;;
41101;SDS011;26845;50.190;19.178;2022-11-14T15:04:27;29.07;;;19.12;;
41101;SDS011;26845;50.190;19.178;2022-11-14T15:06:57;24.55;;;15.88;;
41101;SDS011;26845;50.190;19.178;2022-11-14T15:09:25;22.80;;;15.43;;
41101;SDS011;26845;50.190;19.178;2022-11-14T15:11:56;26.17;;;17.73;;
41101;SDS011;26845;50.190;19.178;2022-11-14T15:16:58;25.23;;;17.00;;
41101;SDS011;26845;50.190;19.178;2022-11-14T15:19:38;25.75;;;16.85;;
41101;SDS011;26845;50.190;19.178;2022-11-14T15:27:49;26.00;;;17.12;;
41101;SDS011;26845;50.190;19.178;2022-11-14T15:30:19;23.00;;;15.58;;
41101;SDS011;26845;50.190;19.178;2022-11-14T15:32:55;23.98;;;16.05;;
41101;SDS011;26845;50.190;19.178;2022-11-14T15:38:02;25.85;;;16.93;;
41101;SDS011;26845;50.190;19.178;2022-11-14T15:40:39;25.90;;;16.95;;
41101;SDS011;26845;50.190;19.178;2022-11-14T15:43:33;27.58;;;18.05;;
41101;SDS011;26845;50.190;19.178;2022-11-14T15:51:57;29.00;;;19.10;;
41101;SDS011;26845;50.190;19.178;2022-11-14T15:57:22;30.12;;;20.35;;
41101;SDS011;26845;50.190;19.178;2022-11-14T15:59:39;29.37;;;19.32;;
41101;SDS011;26845;50.190;19.178;2022-11-14T16:04:54;29.60;;;19.07;;
41101;SDS011;26845;50.190;19.178;2022-11-14T16:07:23;31.75;;;21.87;;
41101;SDS011;26845;50.190;19.178;2022-11-14T16:09:50;31.33;;;20.60;;
41101;SDS011;26845;50.190;19.178;2022-11-14T16:12:18;28.30;;;18.57;;
41101;SDS011;26845;50.190;19.178;2022-11-14T16:14:46;28.92;;;18.02;;
41101;SDS011;26845;50.190;19.178;2022-11-14T16:17:13;26.80;;;17.80;;
41101;SDS011;26845;50.190;19.178;2022-11-14T16:19:42;29.40;;;19.00;;
41101;SDS011;26845;50.190;19.178;2022-11-14T16:22:10;28.12;;;18.25;;
41101;SDS011;26845;50.190;19.178;2022-11-14T16:24:39;30.65;;;19.37;;
41101;SDS011;26845;50.190;19.178;2022-11-14T16:27:06;25.35;;;17.25;;
41101;SDS011;26845;50.190;19.178;2022-11-14T16:29:32;30.00;;;19.30;;
41101;SDS011;26845;50.190;19.178;2022-11-14T16:31:59;29.80;;;19.30;;
41101;SDS011;26845;50.190;19.178;2022-11-14T16:34:26;30.32;;;20.40;;
41101;SDS011;26845;50.190;19.178;2022-11-14T16:36:57;27.90;;;18.20;;
41101;SDS011;26845;50.190;19.178;2022-11-14T16:39:27;29.37;;;19.25;;
41101;SDS011;26845;50.190;19.178;2022-11-14T16:41:58;29.75;;;18.77;;
41101;SDS011;26845;50.190;19.178;2022-11-14T16:44:27;28.83;;;17.20;;
41101;SDS011;26845;50.190;19.178;2022-11-14T16:46:55;29.25;;;18.00;;
41101;SDS011;26845;50.190;19.178;2022-11-14T16:49:22;33.83;;;20.17;;
41101;SDS011;26845;50.190;19.178;2022-11-14T16:51:49;30.17;;;19.52;;
41101;SDS011;26845;50.190;19.178;2022-11-14T16:54:17;31.93;;;19.55;;
41101;SDS011;26845;50.190;19.178;2022-11-14T16:56:45;34.03;;;19.42;;